sensor_id;sensor_type;location;lat;lon;timestamp;P1;durP1;ratioP1;P2;durP2;ratioP2
28577;SDS011;15769;52.248;15.818;2022-08-19T00:00:57;12.35;;;11.05;;
28577;SDS011;15769;52.248;15.818;2022-08-19T00:06:03;12.88;;;11.48;;
28577;SDS011;15769;52.248;15.818;2022-08-19T00:11:05;14.93;;;13.38;;
28577;SDS011;15769;52.248;15.818;2022-08-19T00:16:12;16.92;;;13.32;;
28577;SDS011;15769;52.248;15.818;2022-08-19T00:21:15;16.40;;;14.32;;
28577;SDS011;15769;52.248;15.818;2022-08-19T00:31:20;14.23;;;12.73;;
28577;SDS011;15769;52.248;15.818;2022-08-19T00:36:23;13.25;;;11.85;;
28577;SDS011;15769;52.248;15.818;2022-08-19T00:41:26;13.25;;;11.80;;
28577;SDS011;15769;52.248;15.818;2022-08-19T00:46:30;14.02;;;12.60;;
28577;SDS011;15769;52.248;15.818;2022-08-19T00:51:34;14.65;;;13.15;;
28577;SDS011;15769;52.248;15.818;2022-08-19T00:56:37;15.95;;;12.77;;
28577;SDS011;15769;52.248;15.818;2022-08-19T01:01:42;15.50;;;13.10;;
28577;SDS011;15769;52.248;15.818;2022-08-19T01:06:46;15.40;;;12.40;;
28577;SDS011;15769;52.248;15.818;2022-08-19T01:11:50;13.77;;;11.45;;
28577;SDS011;15769;52.248;15.818;2022-08-19T01:16:55;12.60;;;11.23;;
28577;SDS011;15769;52.248;15.818;2022-08-19T01:22:03;15.38;;;12.50;;
28577;SDS011;15769;52.248;15.818;2022-08-19T01:27:16;14.55;;;12.73;;
28577;SDS011;15769;52.248;15.818;2022-08-19T01:32:21;18.17;;;13.23;;
28577;SDS011;15769;52.248;15.818;2022-08-19T01:43:10;18.23;;;14.30;;
28577;SDS011;15769;52.248;15.818;2022-08-19T01:48:13;19.15;;;13.70;;
28577;SDS011;15769;52.248;15.818;2022-08-19T01:53:15;16.00;;;14.10;;
28577;SDS011;15769;52.248;15.818;2022-08-19T01:58:32;15.03;;;13.00;;
28577;SDS011;15769;52.248;15.818;2022-08-19T02:03:38;17.75;;;14.18;;
28577;SDS011;15769;52.248;15.818;2022-08-19T02:08:41;15.13;;;13.52;;
28577;SDS011;15769;52.248;15.818;2022-08-19T02:13:43;14.95;;;13.50;;
28577;SDS011;15769;52.248;15.818;2022-08-19T02:18:46;16.48;;;14.45;;
28577;SDS011;15769;52.248;15.818;2022-08-19T02:23:52;16.02;;;14.10;;
28577;SDS011;15769;52.248;15.818;2022-08-19T02:28:57;14.45;;;12.80;;
28577;SDS011;15769;52.248;15.818;2022-08-19T02:34:01;14.02;;;12.50;;
28577;SDS011;15769;52.248;15.818;2022-08-19T02:39:04;14.55;;;12.98;;
28577;SDS011;15769;52.248;15.818;2022-08-19T02:49:27;16.65;;;13.95;;
28577;SDS011;15769;52.248;15.818;2022-08-19T02:54:38;16.15;;;14.45;;
28577;SDS011;15769;52.248;15.818;2022-08-19T03:04:43;15.38;;;12.95;;
28577;SDS011;15769;52.248;15.818;2022-08-19T03:09:45;17.40;;;15.02;;
28577;SDS011;15769;52.248;15.818;2022-08-19T03:14:48;19.25;;;15.20;;
28577;SDS011;15769;52.248;15.818;2022-08-19T03:19:50;16.10;;;14.35;;
28577;SDS011;15769;52.248;15.818;2022-08-19T03:24:52;20.23;;;14.93;;
28577;SDS011;15769;52.248;15.818;2022-08-19T03:34:58;17.63;;;15.57;;
28577;SDS011;15769;52.248;15.818;2022-08-19T03:40:01;18.58;;;15.63;;
28577;SDS011;15769;52.248;15.818;2022-08-19T03:45:06;17.23;;;14.73;;
28577;SDS011;15769;52.248;15.818;2022-08-19T03:50:09;19.25;;;15.18;;
28577;SDS011;15769;52.248;15.818;2022-08-19T04:00:14;17.27;;;14.93;;
28577;SDS011;15769;52.248;15.818;2022-08-19T04:05:17;15.80;;;14.18;;
28577;SDS011;15769;52.248;15.818;2022-08-19T04:10:28;15.05;;;13.45;;
28577;SDS011;15769;52.248;15.818;2022-08-19T04:15:31;14.13;;;12.05;;
28577;SDS011;15769;52.248;15.818;2022-08-19T04:20:45;15.63;;;13.95;;
28577;SDS011;15769;52.248;15.818;2022-08-19T04:25:52;22.00;;;16.52;;
28577;SDS011;15769;52.248;15.818;2022-08-19T04:30:54;18.98;;;15.68;;
28577;SDS011;15769;52.248;15.818;2022-08-19T04:35:57;21.83;;;18.70;;
28577;SDS011;15769;52.248;15.818;2022-08-19T04:41:01;16.63;;;14.55;;
28577;SDS011;15769;52.248;15.818;2022-08-19T04:46:29;20.65;;;16.35;;
28577;SDS011;15769;52.248;15.818;2022-08-19T04:51:42;16.93;;;14.53;;
28577;SDS011;15769;52.248;15.818;2022-08-19T04:56:45;18.23;;;15.95;;
28577;SDS011;15769;52.248;15.818;2022-08-19T05:01:48;16.10;;;13.80;;
28577;SDS011;15769;52.248;15.818;2022-08-19T05:06:52;16.83;;;13.07;;
28577;SDS011;15769;52.248;15.818;2022-08-19T05:12:02;16.95;;;14.75;;
28577;SDS011;15769;52.248;15.818;2022-08-19T05:17:05;18.83;;;15.65;;
28577;SDS011;15769;52.248;15.818;2022-08-19T05:22:28;19.75;;;16.70;;
28577;SDS011;15769;52.248;15.818;2022-08-19T05:27:42;15.98;;;14.35;;
28577;SDS011;15769;52.248;15.818;2022-08-19T05:32:45;15.88;;;13.95;;
28577;SDS011;15769;52.248;15.818;2022-08-19T05:37:49;17.38;;;15.65;;
28577;SDS011;15769;52.248;15.818;2022-08-19T05:42:56;17.90;;;15.52;;
28577;SDS011;15769;52.248;15.818;2022-08-19T05:48:07;19.80;;;16.88;;
28577;SDS011;15769;52.248;15.818;2022-08-19T05:53:14;15.25;;;13.75;;
28577;SDS011;15769;52.248;15.818;2022-08-19T05:58:18;15.77;;;14.18;;
28577;SDS011;15769;52.248;15.818;2022-08-19T06:03:24;18.88;;;15.82;;
28577;SDS011;15769;52.248;15.818;2022-08-19T06:08:28;18.48;;;16.08;;
28577;SDS011;15769;52.248;15.818;2022-08-19T06:13:36;18.70;;;16.08;;
28577;SDS011;15769;52.248;15.818;2022-08-19T06:18:40;25.25;;;16.95;;
28577;SDS011;15769;52.248;15.818;2022-08-19T06:23:43;15.45;;;13.85;;
28577;SDS011;15769;52.248;15.818;2022-08-19T06:33:49;16.23;;;14.50;;
28577;SDS011;15769;52.248;15.818;2022-08-19T06:38:51;19.17;;;13.77;;
28577;SDS011;15769;52.248;15.818;2022-08-19T06:48:57;15.57;;;13.35;;
28577;SDS011;15769;52.248;15.818;2022-08-19T06:54:00;15.90;;;14.20;;
28577;SDS011;15769;52.248;15.818;2022-08-19T06:59:05;15.43;;;12.77;;
28577;SDS011;15769;52.248;15.818;2022-08-19T07:04:13;16.10;;;13.57;;
28577;SDS011;15769;52.248;15.818;2022-08-19T07:09:24;15.18;;;13.68;;
28577;SDS011;15769;52.248;15.818;2022-08-19T07:14:30;14.90;;;13.40;;
28577;SDS011;15769;52.248;15.818;2022-08-19T07:19:37;13.93;;;12.45;;
28577;SDS011;15769;52.248;15.818;2022-08-19T07:24:40;15.07;;;12.88;;
28577;SDS011;15769;52.248;15.818;2022-08-19T07:29:52;13.55;;;12.15;;
28577;SDS011;15769;52.248;15.818;2022-08-19T07:34:58;14.82;;;12.73;;
28577;SDS011;15769;52.248;15.818;2022-08-19T07:40:08;16.48;;;13.15;;
28577;SDS011;15769;52.248;15.818;2022-08-19T07:45:11;16.83;;;14.75;;
28577;SDS011;15769;52.248;15.818;2022-08-19T07:50:14;15.18;;;13.20;;
28577;SDS011;15769;52.248;15.818;2022-08-19T07:55:20;13.98;;;12.38;;
28577;SDS011;15769;52.248;15.818;2022-08-19T08:00:45;14.35;;;12.82;;
28577;SDS011;15769;52.248;15.818;2022-08-19T08:05:49;13.35;;;12.15;;
28577;SDS011;15769;52.248;15.818;2022-08-19T08:11:10;13.88;;;12.38;;
28577;SDS011;15769;52.248;15.818;2022-08-19T08:16:16;14.10;;;12.70;;
28577;SDS011;15769;52.248;15.818;2022-08-19T08:21:19;13.73;;;11.98;;
28577;SDS011;15769;52.248;15.818;2022-08-19T08:26:22;11.75;;;10.65;;
28577;SDS011;15769;52.248;15.818;2022-08-19T08:31:24;13.80;;;11.60;;
28577;SDS011;15769;52.248;15.818;2022-08-19T08:36:27;11.82;;;9.80;;
28577;SDS011;15769;52.248;15.818;2022-08-19T08:46:53;11.50;;;10.30;;
28577;SDS011;15769;52.248;15.818;2022-08-19T08:57:07;10.77;;;9.85;;
28577;SDS011;15769;52.248;15.818;2022-08-19T09:02:13;11.43;;;8.73;;
28577;SDS011;15769;52.248;15.818;2022-08-19T09:17:52;10.70;;;9.68;;
28577;SDS011;15769;52.248;15.818;2022-08-19T09:22:55;11.02;;;9.93;;
28577;SDS011;15769;52.248;15.818;2022-08-19T09:27:58;11.15;;;9.68;;
28577;SDS011;15769;52.248;15.818;2022-08-19T09:33:16;11.45;;;10.40;;
28577;SDS011;15769;52.248;15.818;2022-08-19T09:38:18;12.50;;;11.20;;
28577;SDS011;15769;52.248;15.818;2022-08-19T09:43:25;13.05;;;11.60;;
28577;SDS011;15769;52.248;15.818;2022-08-19T09:48:38;12.57;;;11.20;;
28577;SDS011;15769;52.248;15.818;2022-08-19T09:53:45;13.00;;;11.70;;
28577;SDS011;15769;52.248;15.818;2022-08-19T09:58:48;14.13;;;12.73;;
28577;SDS011;15769;52.248;15.818;2022-08-19T10:03:53;16.60;;;14.40;;
28577;SDS011;15769;52.248;15.818;2022-08-19T10:08:59;17.30;;;14.20;;
28577;SDS011;15769;52.248;15.818;2022-08-19T10:14:18;15.13;;;13.20;;
28577;SDS011;15769;52.248;15.818;2022-08-19T10:19:24;15.20;;;13.65;;
28577;SDS011;15769;52.248;15.818;2022-08-19T10:24:27;15.65;;;14.20;;
28577;SDS011;15769;52.248;15.818;2022-08-19T10:29:30;15.95;;;14.40;;
28577;SDS011;15769;52.248;15.818;2022-08-19T10:34:37;17.15;;;15.55;;
28577;SDS011;15769;52.248;15.818;2022-08-19T10:39:50;18.20;;;16.50;;
28577;SDS011;15769;52.248;15.818;2022-08-19T10:44:53;19.65;;;17.75;;
28577;SDS011;15769;52.248;15.818;2022-08-19T10:49:55;20.67;;;18.55;;
28577;SDS011;15769;52.248;15.818;2022-08-19T10:55:18;19.40;;;17.60;;
28577;SDS011;15769;52.248;15.818;2022-08-19T11:00:41;20.98;;;18.92;;
28577;SDS011;15769;52.248;15.818;2022-08-19T11:05:45;21.33;;;19.23;;
28577;SDS011;15769;52.248;15.818;2022-08-19T11:10:48;20.67;;;18.58;;
28577;SDS011;15769;52.248;15.818;2022-08-19T11:16:03;20.30;;;18.23;;
28577;SDS011;15769;52.248;15.818;2022-08-19T11:21:10;20.15;;;18.02;;
28577;SDS011;15769;52.248;15.818;2022-08-19T11:26:16;21.05;;;17.73;;
28577;SDS011;15769;52.248;15.818;2022-08-19T11:31:20;21.92;;;19.73;;
28577;SDS011;15769;52.248;15.818;2022-08-19T11:36:30;20.73;;;18.67;;
28577;SDS011;15769;52.248;15.818;2022-08-19T11:41:35;26.77;;;22.02;;
28577;SDS011;15769;52.248;15.818;2022-08-19T11:46:38;25.20;;;22.60;;
28577;SDS011;15769;52.248;15.818;2022-08-19T11:51:41;25.05;;;22.25;;
28577;SDS011;15769;52.248;15.818;2022-08-19T11:56:45;20.50;;;18.33;;
28577;SDS011;15769;52.248;15.818;2022-08-19T12:01:49;19.13;;;16.17;;
28577;SDS011;15769;52.248;15.818;2022-08-19T12:06:52;19.50;;;17.40;;
28577;SDS011;15769;52.248;15.818;2022-08-19T12:11:55;19.35;;;17.08;;
28577;SDS011;15769;52.248;15.818;2022-08-19T12:16:58;21.10;;;18.70;;
28577;SDS011;15769;52.248;15.818;2022-08-19T12:22:00;26.02;;;20.00;;
28577;SDS011;15769;52.248;15.818;2022-08-19T12:27:04;21.23;;;18.80;;
28577;SDS011;15769;52.248;15.818;2022-08-19T12:37:21;21.48;;;18.45;;
28577;SDS011;15769;52.248;15.818;2022-08-19T12:42:26;19.73;;;17.17;;
28577;SDS011;15769;52.248;15.818;2022-08-19T12:47:29;19.08;;;17.00;;
28577;SDS011;15769;52.248;15.818;2022-08-19T12:52:36;21.73;;;18.08;;
28577;SDS011;15769;52.248;15.818;2022-08-19T12:57:39;18.95;;;16.67;;
28577;SDS011;15769;52.248;15.818;2022-08-19T13:02:43;18.05;;;16.10;;
28577;SDS011;15769;52.248;15.818;2022-08-19T13:07:51;18.77;;;16.88;;
28577;SDS011;15769;52.248;15.818;2022-08-19T13:19:07;19.42;;;17.45;;
28577;SDS011;15769;52.248;15.818;2022-08-19T13:24:10;19.80;;;17.70;;
28577;SDS011;15769;52.248;15.818;2022-08-19T13:29:13;19.33;;;17.27;;
28577;SDS011;15769;52.248;15.818;2022-08-19T13:34:34;19.43;;;17.43;;
28577;SDS011;15769;52.248;15.818;2022-08-19T13:39:37;19.38;;;17.33;;
28577;SDS011;15769;52.248;15.818;2022-08-19T13:44:43;22.83;;;18.92;;
28577;SDS011;15769;52.248;15.818;2022-08-19T13:49:47;21.27;;;19.00;;
28577;SDS011;15769;52.248;15.818;2022-08-19T13:54:54;21.75;;;19.45;;
28577;SDS011;15769;52.248;15.818;2022-08-19T13:59:58;22.45;;;20.05;;
28577;SDS011;15769;52.248;15.818;2022-08-19T14:05:01;22.83;;;20.15;;
28577;SDS011;15769;52.248;15.818;2022-08-19T14:10:04;24.40;;;20.63;;
28577;SDS011;15769;52.248;15.818;2022-08-19T14:15:08;26.80;;;22.35;;
28577;SDS011;15769;52.248;15.818;2022-08-19T14:20:16;31.65;;;25.67;;
28577;SDS011;15769;52.248;15.818;2022-08-19T14:25:24;32.30;;;26.27;;
28577;SDS011;15769;52.248;15.818;2022-08-19T14:30:34;36.47;;;28.08;;
28577;SDS011;15769;52.248;15.818;2022-08-19T14:35:40;33.03;;;27.65;;
28577;SDS011;15769;52.248;15.818;2022-08-19T14:40:51;39.40;;;32.65;;
28577;SDS011;15769;52.248;15.818;2022-08-19T14:45:55;33.28;;;27.60;;
28577;SDS011;15769;52.248;15.818;2022-08-19T14:50:59;32.00;;;27.40;;
28577;SDS011;15769;52.248;15.818;2022-08-19T14:56:11;33.00;;;27.75;;
28577;SDS011;15769;52.248;15.818;2022-08-19T15:01:15;35.42;;;29.80;;
28577;SDS011;15769;52.248;15.818;2022-08-19T15:06:17;32.78;;;27.65;;
28577;SDS011;15769;52.248;15.818;2022-08-19T15:11:24;30.13;;;25.85;;
28577;SDS011;15769;52.248;15.818;2022-08-19T15:16:29;29.55;;;25.38;;
28577;SDS011;15769;52.248;15.818;2022-08-19T15:21:32;29.58;;;24.83;;
28577;SDS011;15769;52.248;15.818;2022-08-19T15:26:34;25.50;;;22.80;;
28577;SDS011;15769;52.248;15.818;2022-08-19T15:31:37;25.23;;;22.58;;
28577;SDS011;15769;52.248;15.818;2022-08-19T15:36:39;24.48;;;21.88;;
28577;SDS011;15769;52.248;15.818;2022-08-19T15:41:42;23.92;;;21.38;;
28577;SDS011;15769;52.248;15.818;2022-08-19T15:46:46;22.83;;;20.42;;
28577;SDS011;15769;52.248;15.818;2022-08-19T15:51:55;22.13;;;19.90;;
28577;SDS011;15769;52.248;15.818;2022-08-19T15:56:59;21.30;;;19.10;;
28577;SDS011;15769;52.248;15.818;2022-08-19T16:02:23;22.23;;;20.10;;
28577;SDS011;15769;52.248;15.818;2022-08-19T16:07:48;21.42;;;19.17;;
28577;SDS011;15769;52.248;15.818;2022-08-19T16:12:55;22.23;;;20.02;;
28577;SDS011;15769;52.248;15.818;2022-08-19T16:17:59;22.20;;;19.90;;
28577;SDS011;15769;52.248;15.818;2022-08-19T16:23:05;21.60;;;19.40;;
28577;SDS011;15769;52.248;15.818;2022-08-19T16:28:07;20.48;;;18.48;;
28577;SDS011;15769;52.248;15.818;2022-08-19T16:33:11;22.70;;;19.58;;
28577;SDS011;15769;52.248;15.818;2022-08-19T16:38:24;22.05;;;19.85;;
28577;SDS011;15769;52.248;15.818;2022-08-19T16:43:29;22.10;;;19.80;;
28577;SDS011;15769;52.248;15.818;2022-08-19T16:48:32;21.02;;;19.05;;
28577;SDS011;15769;52.248;15.818;2022-08-19T16:58:37;19.70;;;17.73;;
28577;SDS011;15769;52.248;15.818;2022-08-19T17:03:40;20.42;;;18.30;;
28577;SDS011;15769;52.248;15.818;2022-08-19T17:08:42;19.77;;;17.77;;
28577;SDS011;15769;52.248;15.818;2022-08-19T17:13:49;21.20;;;19.20;;
28577;SDS011;15769;52.248;15.818;2022-08-19T17:18:54;20.40;;;18.30;;
28577;SDS011;15769;52.248;15.818;2022-08-19T17:24:08;20.42;;;18.52;;
28577;SDS011;15769;52.248;15.818;2022-08-19T17:29:10;22.40;;;20.15;;
28577;SDS011;15769;52.248;15.818;2022-08-19T17:34:12;23.95;;;21.55;;
28577;SDS011;15769;52.248;15.818;2022-08-19T17:39:15;25.52;;;22.98;;
28577;SDS011;15769;52.248;15.818;2022-08-19T17:49:19;27.63;;;24.65;;
28577;SDS011;15769;52.248;15.818;2022-08-19T17:59:24;22.98;;;20.77;;
28577;SDS011;15769;52.248;15.818;2022-08-19T18:04:30;23.17;;;20.85;;
28577;SDS011;15769;52.248;15.818;2022-08-19T18:14:42;24.67;;;22.08;;
28577;SDS011;15769;52.248;15.818;2022-08-19T18:24:48;23.65;;;21.38;;
28577;SDS011;15769;52.248;15.818;2022-08-19T18:29:51;24.17;;;21.38;;
28577;SDS011;15769;52.248;15.818;2022-08-19T18:35:02;24.13;;;21.77;;
28577;SDS011;15769;52.248;15.818;2022-08-19T18:40:12;23.42;;;20.95;;
28577;SDS011;15769;52.248;15.818;2022-08-19T18:45:36;23.45;;;21.20;;
28577;SDS011;15769;52.248;15.818;2022-08-19T18:50:58;21.88;;;19.77;;
28577;SDS011;15769;52.248;15.818;2022-08-19T18:56:01;24.20;;;21.80;;
28577;SDS011;15769;52.248;15.818;2022-08-19T19:06:13;22.65;;;20.35;;
28577;SDS011;15769;52.248;15.818;2022-08-19T19:11:24;21.55;;;19.33;;
28577;SDS011;15769;52.248;15.818;2022-08-19T19:16:34;24.38;;;21.58;;
28577;SDS011;15769;52.248;15.818;2022-08-19T19:21:40;23.90;;;21.48;;
28577;SDS011;15769;52.248;15.818;2022-08-19T19:26:49;34.75;;;27.08;;
28577;SDS011;15769;52.248;15.818;2022-08-19T19:31:52;26.52;;;23.50;;
28577;SDS011;15769;52.248;15.818;2022-08-19T19:36:56;44.72;;;33.13;;
28577;SDS011;15769;52.248;15.818;2022-08-19T19:42:04;29.40;;;26.30;;
28577;SDS011;15769;52.248;15.818;2022-08-19T19:47:13;24.73;;;22.10;;
28577;SDS011;15769;52.248;15.818;2022-08-19T19:52:20;22.75;;;20.55;;
28577;SDS011;15769;52.248;15.818;2022-08-19T19:57:23;22.65;;;20.30;;
28577;SDS011;15769;52.248;15.818;2022-08-19T20:02:28;22.88;;;20.48;;
28577;SDS011;15769;52.248;15.818;2022-08-19T20:07:35;23.05;;;20.80;;
28577;SDS011;15769;52.248;15.818;2022-08-19T20:12:59;24.15;;;21.67;;
28577;SDS011;15769;52.248;15.818;2022-08-19T20:18:03;23.02;;;20.63;;
28577;SDS011;15769;52.248;15.818;2022-08-19T20:28:30;22.50;;;20.30;;
28577;SDS011;15769;52.248;15.818;2022-08-19T20:34:13;21.98;;;19.88;;
28577;SDS011;15769;52.248;15.818;2022-08-19T20:39:16;23.55;;;21.10;;
28577;SDS011;15769;52.248;15.818;2022-08-19T20:44:20;22.60;;;20.50;;
28577;SDS011;15769;52.248;15.818;2022-08-19T20:49:23;25.58;;;22.92;;
28577;SDS011;15769;52.248;15.818;2022-08-19T20:54:29;26.33;;;23.05;;
28577;SDS011;15769;52.248;15.818;2022-08-19T20:59:34;25.90;;;23.20;;
28577;SDS011;15769;52.248;15.818;2022-08-19T21:04:39;26.08;;;23.27;;
28577;SDS011;15769;52.248;15.818;2022-08-19T21:09:42;27.70;;;24.90;;
28577;SDS011;15769;52.248;15.818;2022-08-19T21:14:45;29.20;;;25.08;;
28577;SDS011;15769;52.248;15.818;2022-08-19T21:20:18;25.27;;;22.65;;
28577;SDS011;15769;52.248;15.818;2022-08-19T21:25:47;30.13;;;26.23;;
28577;SDS011;15769;52.248;15.818;2022-08-19T21:30:56;29.90;;;25.38;;
28577;SDS011;15769;52.248;15.818;2022-08-19T21:36:00;26.73;;;23.88;;
28577;SDS011;15769;52.248;15.818;2022-08-19T21:41:03;28.70;;;25.00;;
28577;SDS011;15769;52.248;15.818;2022-08-19T21:46:07;28.58;;;24.73;;
28577;SDS011;15769;52.248;15.818;2022-08-19T21:56:12;27.70;;;24.67;;
28577;SDS011;15769;52.248;15.818;2022-08-19T22:01:15;28.10;;;25.02;;
28577;SDS011;15769;52.248;15.818;2022-08-19T22:06:17;26.67;;;23.80;;
28577;SDS011;15769;52.248;15.818;2022-08-19T22:11:21;29.70;;;25.55;;
28577;SDS011;15769;52.248;15.818;2022-08-19T22:16:25;28.55;;;24.27;;
28577;SDS011;15769;52.248;15.818;2022-08-19T22:21:28;30.42;;;26.25;;
28577;SDS011;15769;52.248;15.818;2022-08-19T22:26:41;25.67;;;22.88;;
28577;SDS011;15769;52.248;15.818;2022-08-19T22:31:43;27.60;;;23.48;;
28577;SDS011;15769;52.248;15.818;2022-08-19T22:36:55;30.27;;;24.67;;
28577;SDS011;15769;52.248;15.818;2022-08-19T22:41:58;29.23;;;24.63;;
28577;SDS011;15769;52.248;15.818;2022-08-19T22:47:01;25.10;;;21.75;;
28577;SDS011;15769;52.248;15.818;2022-08-19T22:52:07;26.58;;;23.30;;
28577;SDS011;15769;52.248;15.818;2022-08-19T22:57:19;27.52;;;24.48;;
28577;SDS011;15769;52.248;15.818;2022-08-19T23:02:23;26.73;;;23.38;;
28577;SDS011;15769;52.248;15.818;2022-08-19T23:07:32;25.50;;;22.60;;
28577;SDS011;15769;52.248;15.818;2022-08-19T23:17:39;27.92;;;22.70;;
28577;SDS011;15769;52.248;15.818;2022-08-19T23:22:43;25.83;;;22.30;;
28577;SDS011;15769;52.248;15.818;2022-08-19T23:27:48;24.80;;;21.30;;
28577;SDS011;15769;52.248;15.818;2022-08-19T23:33:17;25.00;;;21.63;;
28577;SDS011;15769;52.248;15.818;2022-08-19T23:38:52;25.25;;;21.42;;
28577;SDS011;15769;52.248;15.818;2022-08-19T23:43:55;27.65;;;22.88;;
28577;SDS011;15769;52.248;15.818;2022-08-19T23:49:01;24.73;;;21.63;;
28577;SDS011;15769;52.248;15.818;2022-08-19T23:54:03;24.10;;;21.20;;
28577;SDS011;15769;52.248;15.818;2022-08-19T23:59:07;24.20;;;20.27;;
